createdAt,value
2022-11-04T00:01:52.464Z,15.90
2022-11-04T00:04:24.207Z,13.25
2022-11-04T00:06:52.898Z,19.02
2022-11-04T00:09:23.524Z,11.70
2022-11-04T00:12:10.378Z,14.27
2022-11-04T00:14:38.910Z,10.32
2022-11-04T00:17:19.450Z,19.70
2022-11-04T00:20:07.683Z,11.95
2022-11-04T00:22:54.467Z,15.85
2022-11-04T00:28:30.888Z,16.10
2022-11-04T00:31:21.130Z,13.95
2022-11-04T00:33:49.579Z,15.40
2022-11-04T00:36:19.562Z,9.13
2022-11-04T00:38:48.414Z,12.25
2022-11-04T00:41:30.181Z,9.45
2022-11-04T00:44:00.563Z,9.20
2022-11-04T00:46:29.994Z,11.68
2022-11-04T00:48:58.534Z,10.32
2022-11-04T00:51:28.763Z,8.88
2022-11-04T00:53:58.232Z,10.95
2022-11-04T00:56:26.967Z,12.43
2022-11-04T00:58:55.242Z,15.05
2022-11-04T01:01:23.906Z,10.70
2022-11-04T01:03:53.937Z,13.50
2022-11-04T01:06:24.208Z,6.97
2022-11-04T01:08:58.262Z,15.82
2022-11-04T01:11:28.372Z,11.77
2022-11-04T01:13:57.503Z,12.93
2022-11-04T01:18:57.052Z,12.77
2022-11-04T01:21:25.637Z,12.25
2022-11-04T01:23:54.050Z,11.32
2022-11-04T01:26:25.865Z,15.55
2022-11-04T01:28:55.715Z,13.63
2022-11-04T01:31:26.389Z,11.88
2022-11-04T01:33:55.959Z,10.68
2022-11-04T01:36:25.586Z,13.05
2022-11-04T01:38:55.544Z,10.38
2022-11-04T01:41:27.973Z,8.88
2022-11-04T01:43:57.707Z,7.93
2022-11-04T01:46:36.680Z,11.43
2022-11-04T01:49:18.474Z,14.85
2022-11-04T01:51:49.510Z,14.52
2022-11-04T01:54:19.310Z,16.13
2022-11-04T01:56:50.168Z,12.20
2022-11-04T01:59:23.162Z,9.48
2022-11-04T02:01:51.895Z,11.77
2022-11-04T02:04:26.955Z,12.23
2022-11-04T02:06:58.272Z,7.65
2022-11-04T02:09:28.624Z,9.60
2022-11-04T02:12:16.136Z,15.13
2022-11-04T02:14:45.683Z,11.32
2022-11-04T02:17:41.337Z,9.45
2022-11-04T02:20:44.326Z,16.25
2022-11-04T02:23:59.419Z,10.45
2022-11-04T02:27:04.327Z,14.52
2022-11-04T02:30:00.196Z,12.73
2022-11-04T02:32:37.343Z,12.65
2022-11-04T02:35:13.278Z,10.95
2022-11-04T02:40:34.945Z,14.98
2022-11-04T02:43:10.307Z,10.43
2022-11-04T02:45:43.659Z,16.33
2022-11-04T02:48:18.651Z,10.95
2022-11-04T02:50:53.599Z,14.15
2022-11-04T02:53:25.096Z,14.30
2022-11-04T02:55:56.645Z,6.95
2022-11-04T02:58:30.245Z,11.80
2022-11-04T03:01:02.305Z,16.45
2022-11-04T03:03:35.263Z,7.47
2022-11-04T03:06:05.946Z,8.60
2022-11-04T03:08:37.217Z,16.20
2022-11-04T03:11:12.482Z,9.80
2022-11-04T03:13:45.004Z,9.30
2022-11-04T03:16:18.551Z,11.98
2022-11-04T03:18:56.915Z,7.25
2022-11-04T03:21:28.298Z,12.63
2022-11-04T03:23:57.061Z,11.20
2022-11-04T03:26:34.643Z,10.27
2022-11-04T03:29:14.404Z,13.95
2022-11-04T03:31:50.835Z,12.40
2022-11-04T03:34:19.341Z,9.73
2022-11-04T03:36:47.919Z,12.40
2022-11-04T03:39:16.444Z,14.00
2022-11-04T03:41:49.348Z,11.75
2022-11-04T03:44:17.733Z,10.10
2022-11-04T03:46:47.930Z,11.77
2022-11-04T03:49:17.517Z,8.65
2022-11-04T03:51:46.098Z,14.70
2022-11-04T03:54:15.819Z,16.00
2022-11-04T03:57:06.794Z,8.77
2022-11-04T03:59:50.287Z,11.07
2022-11-04T04:02:23.879Z,17.27
2022-11-04T04:05:00.017Z,14.63
2022-11-04T04:07:35.020Z,14.23
2022-11-04T04:10:30.145Z,9.63
2022-11-04T04:13:01.951Z,13.20
2022-11-04T04:15:42.276Z,11.30
2022-11-04T04:18:15.958Z,6.65
2022-11-04T04:20:48.107Z,12.77
2022-11-04T04:23:38.863Z,11.90
2022-11-04T04:26:27.934Z,9.23
2022-11-04T04:28:58.792Z,7.90
2022-11-04T04:31:45.895Z,9.40
2022-11-04T04:34:16.534Z,8.27
2022-11-04T04:36:48.091Z,8.73
2022-11-04T04:39:39.146Z,11.10
2022-11-04T04:42:26.072Z,11.45
2022-11-04T04:45:01.275Z,11.40
2022-11-04T04:47:35.948Z,8.40
2022-11-04T04:50:07.092Z,12.15
2022-11-04T04:52:39.865Z,14.48
2022-11-04T04:55:09.768Z,11.70
2022-11-04T04:57:38.215Z,16.55
2022-11-04T05:00:09.347Z,9.85
2022-11-04T05:02:37.808Z,9.07
2022-11-04T05:05:08.960Z,8.63
2022-11-04T05:07:37.219Z,10.07
2022-11-04T05:10:06.502Z,10.45
2022-11-04T05:12:54.028Z,13.85
2022-11-04T05:15:22.768Z,14.52
2022-11-04T05:17:55.668Z,6.88
2022-11-04T05:20:26.201Z,9.70
2022-11-04T05:22:55.907Z,5.90
2022-11-04T05:25:24.437Z,9.48
2022-11-04T05:27:52.676Z,6.90
2022-11-04T05:30:21.407Z,8.02
2022-11-04T05:32:49.923Z,10.38
2022-11-04T05:35:18.508Z,5.72
2022-11-04T05:37:48.169Z,7.72
2022-11-04T05:40:16.877Z,13.45
2022-11-04T05:42:45.422Z,6.35
2022-11-04T05:45:14.034Z,7.15
2022-11-04T05:47:42.336Z,9.27
2022-11-04T05:50:11.114Z,8.48
2022-11-04T05:52:39.377Z,6.88
2022-11-04T05:55:10.058Z,11.07
2022-11-04T05:57:38.384Z,16.58
2022-11-04T06:00:08.020Z,10.73
2022-11-04T06:02:36.279Z,13.07
2022-11-04T06:05:05.161Z,13.52
2022-11-04T06:07:33.574Z,10.52
2022-11-04T06:10:02.091Z,12.60
2022-11-04T06:12:31.947Z,13.05
2022-11-04T06:15:00.487Z,11.52
2022-11-04T06:17:28.731Z,12.40
2022-11-04T06:19:57.536Z,8.25
2022-11-04T06:22:25.768Z,9.70
2022-11-04T06:24:54.358Z,7.50
2022-11-04T06:27:22.642Z,9.05
2022-11-04T06:29:53.713Z,13.70
2022-11-04T06:32:21.992Z,15.98
2022-11-04T06:34:50.436Z,11.57
2022-11-04T06:37:19.004Z,8.85
2022-11-04T06:39:47.590Z,20.42
2022-11-04T06:42:15.961Z,16.20
2022-11-04T06:44:44.545Z,9.63
2022-11-04T06:47:14.143Z,14.35
2022-11-04T06:49:42.703Z,12.55
2022-11-04T06:52:10.930Z,12.40
2022-11-04T06:54:39.512Z,7.90
2022-11-04T06:57:07.794Z,9.85
2022-11-04T06:59:36.344Z,9.15
2022-11-04T07:02:04.973Z,11.45
2022-11-04T07:04:35.321Z,13.18
2022-11-04T07:07:03.607Z,10.55
2022-11-04T07:09:32.187Z,17.20
2022-11-04T07:12:00.469Z,8.65
2022-11-04T07:14:29.286Z,8.38
2022-11-04T07:16:57.634Z,8.50
2022-11-04T07:19:26.212Z,12.20
2022-11-04T07:21:55.749Z,13.27
2022-11-04T07:24:24.405Z,7.40
2022-11-04T07:26:55.154Z,11.30
2022-11-04T07:29:25.417Z,10.02
2022-11-04T07:31:54.385Z,11.20
2022-11-04T07:34:23.202Z,13.23
2022-11-04T07:36:51.413Z,12.23
2022-11-04T07:39:21.348Z,9.65
2022-11-04T07:41:49.614Z,9.15
2022-11-04T07:44:18.311Z,15.02
2022-11-04T07:46:46.570Z,9.43
2022-11-04T07:49:15.073Z,17.30
2022-11-04T07:51:43.348Z,11.88
2022-11-04T07:54:12.210Z,22.85
2022-11-04T07:56:41.873Z,8.27
2022-11-04T07:59:11.527Z,16.70
2022-11-04T08:01:40.314Z,13.27
2022-11-04T08:04:08.889Z,11.10
2022-11-04T08:06:37.190Z,18.23
2022-11-04T08:09:05.977Z,12.65
2022-11-04T08:11:34.445Z,13.00
2022-11-04T08:14:05.573Z,11.48
2022-11-04T08:16:34.648Z,15.02
2022-11-04T08:19:03.388Z,17.48
2022-11-04T08:21:32.787Z,7.28
2022-11-04T08:24:03.368Z,14.43
2022-11-04T08:26:31.867Z,14.05
2022-11-04T08:29:01.458Z,13.55
2022-11-04T08:31:33.710Z,12.68
2022-11-04T08:34:03.252Z,11.60
2022-11-04T08:36:34.446Z,10.13
2022-11-04T08:39:10.288Z,21.27
2022-11-04T08:41:41.997Z,14.40
2022-11-04T08:44:11.772Z,16.77
2022-11-04T08:46:43.171Z,20.67
2022-11-04T08:49:14.945Z,13.25
2022-11-04T08:51:49.542Z,15.60
2022-11-04T08:54:18.088Z,13.60
2022-11-04T08:56:46.308Z,14.00
2022-11-04T08:59:15.163Z,16.55
2022-11-04T09:01:45.252Z,15.40
2022-11-04T09:04:14.415Z,17.15
2022-11-04T09:06:46.075Z,16.38
2022-11-04T09:09:16.201Z,12.55
2022-11-04T09:11:46.498Z,12.23
2022-11-04T09:14:17.842Z,15.73
2022-11-04T09:16:47.452Z,17.70
2022-11-04T09:19:16.234Z,21.60
2022-11-04T09:21:44.432Z,13.68
2022-11-04T09:24:13.178Z,10.82
2022-11-04T09:26:41.564Z,11.48
2022-11-04T09:29:10.214Z,15.48
2022-11-04T09:31:39.109Z,15.82
2022-11-04T09:34:08.917Z,15.15
2022-11-04T09:36:37.230Z,14.18
2022-11-04T09:39:06.216Z,12.88
2022-11-04T09:42:00.085Z,18.27
2022-11-04T09:45:06.871Z,13.15
2022-11-04T09:47:32.686Z,14.73
2022-11-04T09:50:07.513Z,17.42
2022-11-04T09:52:40.604Z,16.02
2022-11-04T09:55:17.337Z,14.55
2022-11-04T09:57:46.091Z,20.77
2022-11-04T10:00:18.125Z,13.60
2022-11-04T10:02:59.809Z,11.55
2022-11-04T10:05:58.551Z,15.77
2022-11-04T10:08:51.851Z,24.13
2022-11-04T10:11:26.535Z,11.45
2022-11-04T10:14:10.705Z,15.98
2022-11-04T10:16:54.515Z,16.40
2022-11-04T10:19:47.490Z,10.07
2022-11-04T10:22:29.120Z,14.70
2022-11-04T10:25:07.372Z,12.75
2022-11-04T10:27:38.818Z,15.15
2022-11-04T10:30:16.742Z,12.95
2022-11-04T10:32:54.681Z,18.30
2022-11-04T10:35:31.524Z,16.30
2022-11-04T10:38:15.497Z,13.25
2022-11-04T10:40:46.865Z,11.80
2022-11-04T10:43:19.228Z,15.60
2022-11-04T10:45:59.532Z,16.52
2022-11-04T10:48:34.212Z,15.85
2022-11-04T10:51:03.138Z,14.88
2022-11-04T10:53:34.544Z,19.08
2022-11-04T10:56:07.971Z,16.73
2022-11-04T10:58:41.059Z,15.40
2022-11-04T11:01:25.572Z,15.63
2022-11-04T11:03:54.683Z,10.80
2022-11-04T11:06:28.457Z,21.00
2022-11-04T11:09:00.834Z,13.30
2022-11-04T11:11:41.287Z,9.38
2022-11-04T11:14:34.098Z,13.45
2022-11-04T11:17:21.565Z,15.82
2022-11-04T11:19:55.878Z,19.55
2022-11-04T11:22:33.278Z,10.80
2022-11-04T11:25:26.791Z,11.23
2022-11-04T11:27:57.759Z,10.35
2022-11-04T11:30:31.488Z,8.80
2022-11-04T11:33:03.851Z,13.95
2022-11-04T11:35:41.305Z,12.88
2022-11-04T11:38:20.131Z,16.52
2022-11-04T11:41:18.666Z,9.45
2022-11-04T11:43:45.041Z,15.93
2022-11-04T11:46:14.437Z,13.32
2022-11-04T11:48:45.483Z,11.45
2022-11-04T11:51:15.726Z,10.95
2022-11-04T11:54:23.119Z,11.80
2022-11-04T12:02:44.072Z,13.88
2022-11-04T12:11:11.207Z,15.80
2022-11-04T12:13:45.282Z,14.00
2022-11-04T12:16:33.444Z,13.90
2022-11-04T12:19:26.971Z,20.50
2022-11-04T12:22:01.235Z,12.13
2022-11-04T12:24:37.400Z,16.75
2022-11-04T12:27:13.801Z,10.45
2022-11-04T12:30:01.462Z,14.93
2022-11-04T12:32:40.786Z,16.75
2022-11-04T12:35:24.960Z,14.27
2022-11-04T12:38:08.675Z,15.98
2022-11-04T12:41:05.094Z,17.13
2022-11-04T12:43:44.948Z,9.98
2022-11-04T12:46:23.939Z,15.00
2022-11-04T12:49:13.953Z,15.63
2022-11-04T12:51:55.163Z,14.98
2022-11-04T12:54:41.805Z,14.52
2022-11-04T12:57:19.845Z,14.25
2022-11-04T13:00:10.834Z,12.05
2022-11-04T13:02:46.972Z,11.95
2022-11-04T13:05:43.320Z,17.75
2022-11-04T13:08:20.293Z,13.20
2022-11-04T13:10:54.098Z,14.80
2022-11-04T13:13:27.809Z,15.02
2022-11-04T13:16:00.460Z,17.05
2022-11-04T13:18:36.571Z,21.65
2022-11-04T13:21:08.370Z,19.73
2022-11-04T13:23:42.383Z,20.27
2022-11-04T13:26:15.524Z,16.70
2022-11-04T13:28:45.777Z,13.35
2022-11-04T13:31:23.169Z,15.68
2022-11-04T13:34:00.458Z,15.75
2022-11-04T13:36:38.284Z,16.88
2022-11-04T13:39:13.335Z,11.40
2022-11-04T13:42:03.414Z,15.05
2022-11-04T13:44:38.045Z,11.70
2022-11-04T13:47:21.603Z,28.65
2022-11-04T13:49:55.378Z,16.95
2022-11-04T13:52:25.333Z,14.52
2022-11-04T13:54:57.350Z,14.00
2022-11-04T13:57:28.194Z,10.20
2022-11-04T14:00:25.501Z,14.23
2022-11-04T14:02:55.005Z,16.08
2022-11-04T14:06:05.832Z,14.80
2022-11-04T14:08:34.363Z,14.13
2022-11-04T14:11:09.175Z,14.13
2022-11-04T14:13:47.966Z,7.97
2022-11-04T14:16:46.714Z,12.93
2022-11-04T14:19:59.845Z,12.32
2022-11-04T14:22:38.897Z,17.73
2022-11-04T14:25:26.933Z,13.23
2022-11-04T14:27:57.887Z,13.57
2022-11-04T14:30:32.178Z,15.43
2022-11-04T14:33:04.033Z,16.83
2022-11-04T14:35:33.150Z,13.40
2022-11-04T14:38:15.112Z,31.60
2022-11-04T14:40:50.063Z,15.25
2022-11-04T14:43:35.995Z,14.30
2022-11-04T14:46:04.754Z,16.85
2022-11-04T14:48:33.615Z,20.38
2022-11-04T14:51:02.020Z,15.75
2022-11-04T14:53:34.549Z,17.98
2022-11-04T14:56:13.214Z,13.25
2022-11-04T14:58:56.137Z,12.80
2022-11-04T15:01:31.265Z,23.33
2022-11-04T15:04:13.496Z,22.58
2022-11-04T15:06:57.699Z,76.10
2022-11-04T15:09:30.760Z,91.05
2022-11-04T15:12:25.311Z,65.65
2022-11-04T15:14:53.987Z,51.25
2022-11-04T15:17:25.529Z,49.33
2022-11-04T15:19:57.112Z,34.80
2022-11-04T15:22:25.630Z,41.38
2022-11-04T15:24:56.782Z,30.83
2022-11-04T15:27:29.493Z,22.63
2022-11-04T15:30:00.334Z,35.42
2022-11-04T15:32:28.916Z,26.08
2022-11-04T15:34:58.068Z,24.98
2022-11-04T15:37:29.539Z,23.38
2022-11-04T15:40:00.112Z,18.98
2022-11-04T15:42:43.094Z,19.27
2022-11-04T15:45:38.782Z,22.80
2022-11-04T15:48:30.571Z,17.13
2022-11-04T15:51:19.878Z,17.25
2022-11-04T15:53:52.122Z,16.90
2022-11-04T15:56:25.035Z,14.75
2022-11-04T15:58:55.514Z,13.68
2022-11-04T16:01:24.479Z,12.27
2022-11-04T16:03:55.593Z,14.25
2022-11-04T16:06:35.728Z,16.80
2022-11-04T16:09:19.032Z,14.68
2022-11-04T16:12:07.995Z,16.60
2022-11-04T16:14:37.295Z,12.68
2022-11-04T16:17:05.871Z,13.50
2022-11-04T16:19:34.625Z,15.75
2022-11-04T16:22:06.540Z,15.30
2022-11-04T16:24:37.933Z,17.00
2022-11-04T16:27:10.719Z,14.75
2022-11-04T16:29:42.731Z,17.98
2022-11-04T16:32:18.895Z,12.90
2022-11-04T16:34:49.804Z,13.75
2022-11-04T16:37:18.504Z,12.68
2022-11-04T16:39:47.433Z,16.60
2022-11-04T16:42:17.678Z,24.75
2022-11-04T16:44:50.823Z,26.17
2022-11-04T16:47:20.227Z,23.75
2022-11-04T16:49:48.856Z,27.45
2022-11-04T16:52:22.932Z,25.35
2022-11-04T16:54:51.444Z,28.02
2022-11-04T16:57:21.065Z,31.80
2022-11-04T16:59:49.804Z,30.92
2022-11-04T17:02:24.221Z,40.17
2022-11-04T17:04:53.103Z,32.85
2022-11-04T17:07:30.529Z,25.02
2022-11-04T17:10:17.104Z,32.50
2022-11-04T17:12:47.170Z,30.17
2022-11-04T17:15:17.640Z,39.03
2022-11-04T17:17:45.944Z,32.35
2022-11-04T17:20:17.702Z,26.13
2022-11-04T17:22:47.081Z,32.35
2022-11-04T17:25:19.407Z,38.55
2022-11-04T17:27:49.194Z,28.60
2022-11-04T17:30:18.657Z,29.42
2022-11-04T17:32:47.982Z,40.63
2022-11-04T17:35:17.667Z,21.00
2022-11-04T17:37:46.493Z,31.58
2022-11-04T17:40:18.434Z,36.78
2022-11-04T17:43:11.596Z,32.30
2022-11-04T17:45:41.644Z,34.17
2022-11-04T17:48:11.299Z,41.80
2022-11-04T17:50:42.249Z,37.80
2022-11-04T17:53:11.286Z,35.42
2022-11-04T17:55:41.432Z,30.60
2022-11-04T17:58:11.117Z,39.22
2022-11-04T18:00:39.649Z,35.38
2022-11-04T18:03:09.149Z,44.25
2022-11-04T18:05:38.000Z,49.75
2022-11-04T18:08:06.397Z,30.55
2022-11-04T18:10:35.117Z,39.75
2022-11-04T18:13:02.409Z,26.08
2022-11-04T18:15:32.469Z,36.78
2022-11-04T18:18:00.844Z,35.47
2022-11-04T18:20:29.374Z,23.38
2022-11-04T18:22:57.731Z,30.17
2022-11-04T18:25:26.315Z,27.50
2022-11-04T18:27:54.568Z,34.88
2022-11-04T18:30:23.524Z,28.85
2022-11-04T18:32:53.186Z,28.20
2022-11-04T18:35:22.023Z,22.20
2022-11-04T18:37:50.327Z,29.60
2022-11-04T18:40:18.992Z,28.95
2022-11-04T18:42:47.254Z,25.92
2022-11-04T18:45:16.348Z,28.00
2022-11-04T18:47:44.767Z,33.65
2022-11-04T18:50:14.990Z,29.05
2022-11-04T18:52:43.393Z,27.48
2022-11-04T18:55:12.325Z,24.80
2022-11-04T18:57:40.667Z,32.95
2022-11-04T19:00:16.719Z,27.33
2022-11-04T19:02:45.501Z,31.95
2022-11-04T19:05:16.086Z,47.83
2022-11-04T19:07:44.981Z,52.83
2022-11-04T19:10:14.205Z,53.33
2022-11-04T19:13:00.140Z,87.75
2022-11-04T19:15:28.800Z,93.70
2022-11-04T19:17:57.031Z,81.22
2022-11-04T19:20:27.254Z,158.35
2022-11-04T19:22:55.444Z,116.53
2022-11-04T19:25:23.910Z,158.32
2022-11-04T19:28:11.720Z,135.27
2022-11-04T19:30:40.836Z,145.02
2022-11-04T19:33:09.199Z,126.43
2022-11-04T19:35:39.003Z,132.40
2022-11-04T19:38:07.540Z,100.35
2022-11-04T19:40:36.364Z,116.20
2022-11-04T19:43:09.558Z,109.53
2022-11-04T19:45:41.862Z,90.07
2022-11-04T19:48:11.250Z,73.28
2022-11-04T19:50:42.622Z,78.30
2022-11-04T19:53:11.054Z,55.58
2022-11-04T19:55:39.862Z,64.97
2022-11-04T19:58:08.510Z,66.88
2022-11-04T20:00:37.271Z,55.30
2022-11-04T20:03:05.711Z,53.53
2022-11-04T20:05:38.677Z,55.13
2022-11-04T20:08:09.789Z,57.22
2022-11-04T20:10:39.638Z,48.15
2022-11-04T20:13:26.110Z,49.80
2022-11-04T20:15:54.604Z,62.78
2022-11-04T20:18:22.831Z,60.70
2022-11-04T20:20:51.469Z,45.58
2022-11-04T20:23:21.062Z,49.88
2022-11-04T20:25:50.040Z,47.00
2022-11-04T20:28:18.294Z,60.50
2022-11-04T20:30:46.812Z,41.40
2022-11-04T20:33:15.262Z,49.63
2022-11-04T20:35:45.420Z,51.72
2022-11-04T20:38:14.138Z,35.72
2022-11-04T20:40:44.239Z,36.08
2022-11-04T20:43:12.554Z,48.83
2022-11-04T20:45:41.080Z,35.33
2022-11-04T20:48:09.522Z,32.47
2022-11-04T20:50:38.459Z,34.05
2022-11-04T20:53:06.728Z,53.28
2022-11-04T20:55:35.230Z,35.95
2022-11-04T20:58:06.374Z,35.80
2022-11-04T21:00:34.857Z,29.77
2022-11-04T21:03:03.588Z,42.08
2022-11-04T21:05:32.130Z,36.05
2022-11-04T21:08:01.043Z,35.67
2022-11-04T21:10:29.581Z,26.35
2022-11-04T21:12:57.832Z,32.92
2022-11-04T21:15:42.983Z,28.30
2022-11-04T21:18:12.965Z,27.58
2022-11-04T21:20:43.565Z,27.67
2022-11-04T21:23:13.956Z,35.33
2022-11-04T21:25:44.259Z,29.25
2022-11-04T21:28:13.976Z,28.88
2022-11-04T21:30:46.137Z,29.25
2022-11-04T21:33:14.959Z,32.08
2022-11-04T21:35:44.489Z,29.55
2022-11-04T21:38:15.839Z,32.83
2022-11-04T21:40:45.743Z,24.58
2022-11-04T21:43:14.623Z,33.88
2022-11-04T21:45:44.802Z,27.02
2022-11-04T21:48:13.481Z,21.02
2022-11-04T21:50:42.267Z,24.85
2022-11-04T21:53:10.668Z,18.98
2022-11-04T21:55:39.270Z,23.25
2022-11-04T21:58:07.705Z,22.13
2022-11-04T22:00:36.516Z,22.65
2022-11-04T22:03:06.110Z,26.52
2022-11-04T22:05:34.663Z,26.13
2022-11-04T22:08:18.168Z,23.02
2022-11-04T22:10:47.224Z,20.92
2022-11-04T22:13:15.526Z,25.98
2022-11-04T22:15:59.602Z,28.00
2022-11-04T22:18:31.119Z,21.27
2022-11-04T22:21:03.362Z,18.45
2022-11-04T22:23:31.665Z,22.23
2022-11-04T22:26:01.491Z,24.52
2022-11-04T22:28:30.373Z,25.75
2022-11-04T22:31:05.075Z,35.67
2022-11-04T22:33:34.917Z,28.73
2022-11-04T22:36:03.472Z,29.52
2022-11-04T22:38:32.642Z,21.65
2022-11-04T22:41:02.071Z,29.60
2022-11-04T22:43:30.591Z,26.67
2022-11-04T22:46:04.866Z,23.40
2022-11-04T22:48:34.968Z,23.00
2022-11-04T22:51:03.582Z,29.30
2022-11-04T22:53:31.785Z,23.33
2022-11-04T22:56:01.575Z,28.90
2022-11-04T22:58:30.422Z,20.55
2022-11-04T23:01:02.063Z,28.35
2022-11-04T23:03:30.778Z,28.52
2022-11-04T23:06:03.379Z,30.60
2022-11-04T23:08:33.292Z,37.22
2022-11-04T23:11:22.177Z,32.63
2022-11-04T23:14:13.209Z,23.13
2022-11-04T23:17:05.506Z,26.10
2022-11-04T23:19:33.900Z,22.15
2022-11-04T23:22:21.517Z,30.70
2022-11-04T23:25:09.721Z,24.30
2022-11-04T23:27:58.045Z,20.05
2022-11-04T23:30:27.132Z,20.58
2022-11-04T23:32:56.954Z,27.90
2022-11-04T23:35:45.302Z,20.17
2022-11-04T23:38:15.396Z,22.38
2022-11-04T23:41:04.317Z,21.17
2022-11-04T23:43:33.165Z,22.65
2022-11-04T23:46:19.158Z,18.90
2022-11-04T23:49:05.642Z,26.58
2022-11-04T23:51:51.679Z,24.83
2022-11-04T23:54:38.012Z,22.70
2022-11-04T23:57:30.119Z,29.85
